sensor_id;sensor_type;location;lat;lon;timestamp;P1;durP1;ratioP1;P2;durP2;ratioP2
67839;SDS011;54636;51.684;5.142;2022-08-19T00:00:12;12.68;;;11.48;;
67839;SDS011;54636;51.684;5.142;2022-08-19T00:02:39;13.77;;;12.48;;
67839;SDS011;54636;51.684;5.142;2022-08-19T00:05:05;13.88;;;12.65;;
67839;SDS011;54636;51.684;5.142;2022-08-19T00:07:31;15.73;;;13.25;;
67839;SDS011;54636;51.684;5.142;2022-08-19T00:09:56;15.30;;;13.88;;
67839;SDS011;54636;51.684;5.142;2022-08-19T00:12:22;15.63;;;14.07;;
67839;SDS011;54636;51.684;5.142;2022-08-19T00:14:47;16.52;;;14.60;;
67839;SDS011;54636;51.684;5.142;2022-08-19T00:17:12;15.98;;;14.30;;
67839;SDS011;54636;51.684;5.142;2022-08-19T00:19:38;17.13;;;15.30;;
67839;SDS011;54636;51.684;5.142;2022-08-19T00:22:04;18.73;;;15.93;;
67839;SDS011;54636;51.684;5.142;2022-08-19T00:24:30;18.35;;;16.25;;
67839;SDS011;54636;51.684;5.142;2022-08-19T00:26:56;22.63;;;17.02;;
67839;SDS011;54636;51.684;5.142;2022-08-19T00:29:22;18.40;;;16.55;;
67839;SDS011;54636;51.684;5.142;2022-08-19T00:31:50;19.08;;;16.60;;
67839;SDS011;54636;51.684;5.142;2022-08-19T00:34:18;18.57;;;16.87;;
67839;SDS011;54636;51.684;5.142;2022-08-19T00:36:44;16.85;;;15.25;;
67839;SDS011;54636;51.684;5.142;2022-08-19T00:39:10;18.88;;;16.90;;
67839;SDS011;54636;51.684;5.142;2022-08-19T00:41:37;18.55;;;16.75;;
67839;SDS011;54636;51.684;5.142;2022-08-19T00:44:05;18.83;;;17.02;;
67839;SDS011;54636;51.684;5.142;2022-08-19T00:46:34;18.27;;;16.38;;
67839;SDS011;54636;51.684;5.142;2022-08-19T00:49:02;18.95;;;16.73;;
67839;SDS011;54636;51.684;5.142;2022-08-19T00:51:34;17.73;;;16.13;;
67839;SDS011;54636;51.684;5.142;2022-08-19T00:54:00;18.88;;;16.98;;
67839;SDS011;54636;51.684;5.142;2022-08-19T00:56:27;19.63;;;17.73;;
67839;SDS011;54636;51.684;5.142;2022-08-19T00:58:54;18.90;;;17.10;;
67839;SDS011;54636;51.684;5.142;2022-08-19T01:01:23;19.88;;;17.08;;
67839;SDS011;54636;51.684;5.142;2022-08-19T01:03:49;19.02;;;17.13;;
67839;SDS011;54636;51.684;5.142;2022-08-19T01:06:14;19.40;;;17.50;;
67839;SDS011;54636;51.684;5.142;2022-08-19T01:08:40;20.15;;;18.20;;
67839;SDS011;54636;51.684;5.142;2022-08-19T01:11:05;19.00;;;17.20;;
67839;SDS011;54636;51.684;5.142;2022-08-19T01:13:33;19.35;;;17.45;;
67839;SDS011;54636;51.684;5.142;2022-08-19T01:16:07;21.95;;;18.30;;
67839;SDS011;54636;51.684;5.142;2022-08-19T01:18:35;19.85;;;18.00;;
67839;SDS011;54636;51.684;5.142;2022-08-19T01:21:09;21.27;;;19.27;;
67839;SDS011;54636;51.684;5.142;2022-08-19T01:23:51;20.67;;;18.65;;
67839;SDS011;54636;51.684;5.142;2022-08-19T01:26:19;21.65;;;19.35;;
67839;SDS011;54636;51.684;5.142;2022-08-19T01:28:49;20.90;;;18.88;;
67839;SDS011;54636;51.684;5.142;2022-08-19T01:31:17;21.98;;;19.67;;
67839;SDS011;54636;51.684;5.142;2022-08-19T01:33:46;23.90;;;19.50;;
67839;SDS011;54636;51.684;5.142;2022-08-19T01:36:16;22.55;;;20.35;;
67839;SDS011;54636;51.684;5.142;2022-08-19T01:38:49;22.80;;;20.02;;
67839;SDS011;54636;51.684;5.142;2022-08-19T01:41:14;21.38;;;19.30;;
67839;SDS011;54636;51.684;5.142;2022-08-19T01:43:42;21.58;;;19.38;;
67839;SDS011;54636;51.684;5.142;2022-08-19T01:46:08;25.50;;;20.23;;
67839;SDS011;54636;51.684;5.142;2022-08-19T01:48:35;21.63;;;19.35;;
67839;SDS011;54636;51.684;5.142;2022-08-19T01:51:02;22.25;;;19.55;;
67839;SDS011;54636;51.684;5.142;2022-08-19T01:53:28;23.52;;;20.42;;
67839;SDS011;54636;51.684;5.142;2022-08-19T01:55:54;24.85;;;20.40;;
67839;SDS011;54636;51.684;5.142;2022-08-19T01:58:21;21.98;;;19.70;;
67839;SDS011;54636;51.684;5.142;2022-08-19T02:00:49;22.25;;;19.98;;
67839;SDS011;54636;51.684;5.142;2022-08-19T02:03:14;24.25;;;21.08;;
67839;SDS011;54636;51.684;5.142;2022-08-19T02:05:40;24.30;;;20.77;;
67839;SDS011;54636;51.684;5.142;2022-08-19T02:08:06;26.17;;;21.77;;
67839;SDS011;54636;51.684;5.142;2022-08-19T02:10:32;24.00;;;21.60;;
67839;SDS011;54636;51.684;5.142;2022-08-19T02:12:58;26.60;;;22.20;;
67839;SDS011;54636;51.684;5.142;2022-08-19T02:15:23;26.70;;;22.50;;
67839;SDS011;54636;51.684;5.142;2022-08-19T02:17:50;23.67;;;20.67;;
67839;SDS011;54636;51.684;5.142;2022-08-19T02:20:16;26.58;;;21.92;;
67839;SDS011;54636;51.684;5.142;2022-08-19T02:22:42;24.35;;;21.73;;
67839;SDS011;54636;51.684;5.142;2022-08-19T02:25:12;28.83;;;21.88;;
67839;SDS011;54636;51.684;5.142;2022-08-19T02:30:10;23.02;;;20.65;;
67839;SDS011;54636;51.684;5.142;2022-08-19T02:32:37;27.80;;;21.90;;
67839;SDS011;54636;51.684;5.142;2022-08-19T02:35:03;24.75;;;20.25;;
67839;SDS011;54636;51.684;5.142;2022-08-19T02:37:29;24.33;;;21.67;;
67839;SDS011;54636;51.684;5.142;2022-08-19T02:40:13;24.35;;;21.45;;
67839;SDS011;54636;51.684;5.142;2022-08-19T02:42:38;26.85;;;21.33;;
67839;SDS011;54636;51.684;5.142;2022-08-19T02:45:05;28.98;;;21.98;;
67839;SDS011;54636;51.684;5.142;2022-08-19T02:47:32;30.40;;;20.95;;
67839;SDS011;54636;51.684;5.142;2022-08-19T02:49:57;29.80;;;21.35;;
67839;SDS011;54636;51.684;5.142;2022-08-19T02:52:23;28.27;;;22.63;;
67839;SDS011;54636;51.684;5.142;2022-08-19T02:54:52;26.17;;;21.93;;
67839;SDS011;54636;51.684;5.142;2022-08-19T02:57:17;28.73;;;21.48;;
67839;SDS011;54636;51.684;5.142;2022-08-19T02:59:43;25.70;;;22.42;;
67839;SDS011;54636;51.684;5.142;2022-08-19T03:02:10;28.38;;;22.70;;
67839;SDS011;54636;51.684;5.142;2022-08-19T03:04:35;26.40;;;21.83;;
67839;SDS011;54636;51.684;5.142;2022-08-19T03:07:01;27.88;;;22.90;;
67839;SDS011;54636;51.684;5.142;2022-08-19T03:09:26;24.73;;;21.40;;
67839;SDS011;54636;51.684;5.142;2022-08-19T03:11:51;28.50;;;21.77;;
67839;SDS011;54636;51.684;5.142;2022-08-19T03:14:17;30.35;;;22.30;;
67839;SDS011;54636;51.684;5.142;2022-08-19T03:16:47;24.80;;;21.27;;
67839;SDS011;54636;51.684;5.142;2022-08-19T03:19:15;30.95;;;22.30;;
67839;SDS011;54636;51.684;5.142;2022-08-19T03:21:42;27.40;;;21.52;;
67839;SDS011;54636;51.684;5.142;2022-08-19T03:24:12;28.77;;;22.80;;
67839;SDS011;54636;51.684;5.142;2022-08-19T03:26:42;27.90;;;22.55;;
67839;SDS011;54636;51.684;5.142;2022-08-19T03:29:10;27.27;;;21.38;;
67839;SDS011;54636;51.684;5.142;2022-08-19T03:31:37;31.45;;;23.38;;
67839;SDS011;54636;51.684;5.142;2022-08-19T03:34:04;31.95;;;24.23;;
67839;SDS011;54636;51.684;5.142;2022-08-19T03:36:30;30.80;;;23.40;;
67839;SDS011;54636;51.684;5.142;2022-08-19T03:38:57;29.45;;;23.23;;
67839;SDS011;54636;51.684;5.142;2022-08-19T03:41:26;31.42;;;23.38;;
67839;SDS011;54636;51.684;5.142;2022-08-19T03:43:54;28.83;;;23.52;;
67839;SDS011;54636;51.684;5.142;2022-08-19T03:46:20;32.83;;;24.95;;
67839;SDS011;54636;51.684;5.142;2022-08-19T03:48:51;31.02;;;25.15;;
67839;SDS011;54636;51.684;5.142;2022-08-19T03:51:22;34.90;;;24.35;;
67839;SDS011;54636;51.684;5.142;2022-08-19T03:53:53;36.53;;;27.85;;
67839;SDS011;54636;51.684;5.142;2022-08-19T03:56:20;39.88;;;27.98;;
67839;SDS011;54636;51.684;5.142;2022-08-19T03:58:46;40.95;;;28.65;;
67839;SDS011;54636;51.684;5.142;2022-08-19T04:01:13;43.20;;;30.35;;
67839;SDS011;54636;51.684;5.142;2022-08-19T04:03:42;59.80;;;36.20;;
67839;SDS011;54636;51.684;5.142;2022-08-19T04:08:39;59.40;;;37.83;;
67839;SDS011;54636;51.684;5.142;2022-08-19T04:11:06;68.50;;;39.85;;
67839;SDS011;54636;51.684;5.142;2022-08-19T04:13:33;69.97;;;41.40;;
67839;SDS011;54636;51.684;5.142;2022-08-19T04:15:59;67.30;;;39.03;;
67839;SDS011;54636;51.684;5.142;2022-08-19T04:18:24;80.45;;;43.60;;
67839;SDS011;54636;51.684;5.142;2022-08-19T04:20:50;81.50;;;42.38;;
67839;SDS011;54636;51.684;5.142;2022-08-19T04:23:16;71.40;;;42.42;;
67839;SDS011;54636;51.684;5.142;2022-08-19T04:25:43;75.95;;;44.20;;
67839;SDS011;54636;51.684;5.142;2022-08-19T04:28:10;77.43;;;44.28;;
67839;SDS011;54636;51.684;5.142;2022-08-19T04:30:40;78.45;;;43.97;;
67839;SDS011;54636;51.684;5.142;2022-08-19T04:33:08;81.38;;;44.55;;
67839;SDS011;54636;51.684;5.142;2022-08-19T04:35:36;80.80;;;43.97;;
67839;SDS011;54636;51.684;5.142;2022-08-19T04:38:02;73.50;;;45.40;;
67839;SDS011;54636;51.684;5.142;2022-08-19T04:40:28;79.72;;;45.38;;
67839;SDS011;54636;51.684;5.142;2022-08-19T04:43:19;78.78;;;43.50;;
67839;SDS011;54636;51.684;5.142;2022-08-19T04:45:45;77.35;;;45.15;;
67839;SDS011;54636;51.684;5.142;2022-08-19T04:48:11;74.88;;;44.40;;
67839;SDS011;54636;51.684;5.142;2022-08-19T04:50:41;74.80;;;43.00;;
67839;SDS011;54636;51.684;5.142;2022-08-19T04:53:07;74.43;;;44.67;;
67839;SDS011;54636;51.684;5.142;2022-08-19T04:55:33;82.38;;;44.42;;
67839;SDS011;54636;51.684;5.142;2022-08-19T04:58:00;71.10;;;44.10;;
67839;SDS011;54636;51.684;5.142;2022-08-19T05:00:27;76.93;;;44.20;;
67839;SDS011;54636;51.684;5.142;2022-08-19T05:02:53;75.60;;;44.17;;
67839;SDS011;54636;51.684;5.142;2022-08-19T05:05:18;80.93;;;46.38;;
67839;SDS011;54636;51.684;5.142;2022-08-19T05:07:44;80.97;;;45.97;;
67839;SDS011;54636;51.684;5.142;2022-08-19T05:10:10;81.47;;;44.58;;
67839;SDS011;54636;51.684;5.142;2022-08-19T05:12:36;75.05;;;42.85;;
67839;SDS011;54636;51.684;5.142;2022-08-19T05:15:03;77.18;;;46.25;;
67839;SDS011;54636;51.684;5.142;2022-08-19T05:17:30;74.72;;;44.83;;
67839;SDS011;54636;51.684;5.142;2022-08-19T05:19:56;76.55;;;44.80;;
67839;SDS011;54636;51.684;5.142;2022-08-19T05:22:41;80.82;;;45.17;;
67839;SDS011;54636;51.684;5.142;2022-08-19T05:25:08;76.70;;;43.78;;
67839;SDS011;54636;51.684;5.142;2022-08-19T05:27:37;65.72;;;43.22;;
67839;SDS011;54636;51.684;5.142;2022-08-19T05:30:02;60.78;;;40.80;;
67839;SDS011;54636;51.684;5.142;2022-08-19T05:32:28;59.13;;;38.25;;
67839;SDS011;54636;51.684;5.142;2022-08-19T05:34:54;61.10;;;38.85;;
67839;SDS011;54636;51.684;5.142;2022-08-19T05:37:19;60.28;;;38.58;;
67839;SDS011;54636;51.684;5.142;2022-08-19T05:39:45;65.55;;;39.92;;
67839;SDS011;54636;51.684;5.142;2022-08-19T05:42:11;66.18;;;40.30;;
67839;SDS011;54636;51.684;5.142;2022-08-19T05:44:39;58.80;;;39.45;;
67839;SDS011;54636;51.684;5.142;2022-08-19T05:47:08;59.72;;;40.22;;
67839;SDS011;54636;51.684;5.142;2022-08-19T05:49:33;60.40;;;38.95;;
67839;SDS011;54636;51.684;5.142;2022-08-19T05:52:02;65.15;;;40.97;;
67839;SDS011;54636;51.684;5.142;2022-08-19T05:54:29;63.58;;;40.35;;
67839;SDS011;54636;51.684;5.142;2022-08-19T05:56:54;57.40;;;40.35;;
67839;SDS011;54636;51.684;5.142;2022-08-19T05:59:20;67.18;;;37.42;;
67839;SDS011;54636;51.684;5.142;2022-08-19T06:01:47;54.10;;;34.47;;
67839;SDS011;54636;51.684;5.142;2022-08-19T06:04:17;55.20;;;36.15;;
67839;SDS011;54636;51.684;5.142;2022-08-19T06:06:45;57.55;;;36.08;;
67839;SDS011;54636;51.684;5.142;2022-08-19T06:09:11;53.95;;;36.42;;
67839;SDS011;54636;51.684;5.142;2022-08-19T06:11:38;50.42;;;34.78;;
67839;SDS011;54636;51.684;5.142;2022-08-19T06:14:06;48.65;;;33.75;;
67839;SDS011;54636;51.684;5.142;2022-08-19T06:16:34;51.47;;;34.40;;
67839;SDS011;54636;51.684;5.142;2022-08-19T06:19:03;61.22;;;34.70;;
67839;SDS011;54636;51.684;5.142;2022-08-19T06:21:31;55.67;;;37.15;;
67839;SDS011;54636;51.684;5.142;2022-08-19T06:23:59;62.90;;;34.92;;
67839;SDS011;54636;51.684;5.142;2022-08-19T06:26:24;61.95;;;36.20;;
67839;SDS011;54636;51.684;5.142;2022-08-19T06:28:51;61.35;;;36.03;;
67839;SDS011;54636;51.684;5.142;2022-08-19T06:31:24;65.60;;;35.80;;
67839;SDS011;54636;51.684;5.142;2022-08-19T06:33:51;62.40;;;34.28;;
67839;SDS011;54636;51.684;5.142;2022-08-19T06:36:21;66.00;;;35.38;;
67839;SDS011;54636;51.684;5.142;2022-08-19T06:38:48;59.78;;;35.78;;
67839;SDS011;54636;51.684;5.142;2022-08-19T06:41:13;59.78;;;34.78;;
67839;SDS011;54636;51.684;5.142;2022-08-19T06:43:39;68.25;;;34.55;;
67839;SDS011;54636;51.684;5.142;2022-08-19T06:46:09;60.47;;;35.10;;
67839;SDS011;54636;51.684;5.142;2022-08-19T06:48:39;65.18;;;35.67;;
67839;SDS011;54636;51.684;5.142;2022-08-19T06:51:06;60.50;;;34.13;;
67839;SDS011;54636;51.684;5.142;2022-08-19T06:53:32;69.43;;;36.03;;
67839;SDS011;54636;51.684;5.142;2022-08-19T06:55:57;59.95;;;33.90;;
67839;SDS011;54636;51.684;5.142;2022-08-19T06:58:27;62.38;;;34.67;;
67839;SDS011;54636;51.684;5.142;2022-08-19T07:00:57;59.42;;;34.70;;
67839;SDS011;54636;51.684;5.142;2022-08-19T07:03:32;59.30;;;35.38;;
67839;SDS011;54636;51.684;5.142;2022-08-19T07:06:07;64.47;;;36.08;;
67839;SDS011;54636;51.684;5.142;2022-08-19T07:08:36;60.28;;;34.65;;
67839;SDS011;54636;51.684;5.142;2022-08-19T07:11:05;61.83;;;34.70;;
67839;SDS011;54636;51.684;5.142;2022-08-19T07:21:07;54.38;;;31.15;;
67839;SDS011;54636;51.684;5.142;2022-08-19T07:23:38;55.17;;;31.40;;
67839;SDS011;54636;51.684;5.142;2022-08-19T07:26:07;51.25;;;31.95;;
67839;SDS011;54636;51.684;5.142;2022-08-19T07:28:37;57.97;;;33.40;;
67839;SDS011;54636;51.684;5.142;2022-08-19T07:31:04;53.83;;;30.45;;
67839;SDS011;54636;51.684;5.142;2022-08-19T07:33:31;52.75;;;31.77;;
67839;SDS011;54636;51.684;5.142;2022-08-19T07:35:57;49.78;;;31.05;;
67839;SDS011;54636;51.684;5.142;2022-08-19T07:38:23;54.20;;;31.90;;
67839;SDS011;54636;51.684;5.142;2022-08-19T07:40:49;50.30;;;30.38;;
67839;SDS011;54636;51.684;5.142;2022-08-19T07:43:16;65.25;;;33.08;;
67839;SDS011;54636;51.684;5.142;2022-08-19T07:45:45;55.25;;;33.55;;
67839;SDS011;54636;51.684;5.142;2022-08-19T07:48:11;62.17;;;32.72;;
67839;SDS011;54636;51.684;5.142;2022-08-19T07:50:37;59.25;;;33.97;;
67839;SDS011;54636;51.684;5.142;2022-08-19T07:53:03;56.17;;;32.53;;
67839;SDS011;54636;51.684;5.142;2022-08-19T07:55:28;58.80;;;34.03;;
67839;SDS011;54636;51.684;5.142;2022-08-19T07:57:54;56.28;;;32.70;;
67839;SDS011;54636;51.684;5.142;2022-08-19T08:00:19;54.83;;;32.78;;
67839;SDS011;54636;51.684;5.142;2022-08-19T08:02:45;48.15;;;28.17;;
67839;SDS011;54636;51.684;5.142;2022-08-19T08:05:11;57.85;;;33.72;;
67839;SDS011;54636;51.684;5.142;2022-08-19T08:07:55;60.28;;;32.47;;
67839;SDS011;54636;51.684;5.142;2022-08-19T08:10:39;61.42;;;32.35;;
67839;SDS011;54636;51.684;5.142;2022-08-19T08:13:05;55.97;;;32.33;;
67839;SDS011;54636;51.684;5.142;2022-08-19T08:15:31;51.30;;;28.75;;
67839;SDS011;54636;51.684;5.142;2022-08-19T08:17:56;52.08;;;31.15;;
67839;SDS011;54636;51.684;5.142;2022-08-19T08:20:22;52.10;;;30.02;;
67839;SDS011;54636;51.684;5.142;2022-08-19T08:22:49;45.35;;;27.98;;
67839;SDS011;54636;51.684;5.142;2022-08-19T08:25:33;46.38;;;29.00;;
67839;SDS011;54636;51.684;5.142;2022-08-19T08:28:00;53.70;;;29.45;;
67839;SDS011;54636;51.684;5.142;2022-08-19T08:30:27;46.70;;;30.35;;
67839;SDS011;54636;51.684;5.142;2022-08-19T08:32:54;51.38;;;31.52;;
67839;SDS011;54636;51.684;5.142;2022-08-19T08:35:22;50.63;;;30.73;;
67839;SDS011;54636;51.684;5.142;2022-08-19T08:37:49;51.63;;;29.52;;
67839;SDS011;54636;51.684;5.142;2022-08-19T08:42:47;44.65;;;29.60;;
67839;SDS011;54636;51.684;5.142;2022-08-19T08:45:19;42.47;;;27.17;;
67839;SDS011;54636;51.684;5.142;2022-08-19T08:47:47;41.58;;;27.88;;
67839;SDS011;54636;51.684;5.142;2022-08-19T08:50:19;36.00;;;27.17;;
67839;SDS011;54636;51.684;5.142;2022-08-19T08:52:50;49.63;;;29.65;;
67839;SDS011;54636;51.684;5.142;2022-08-19T09:00:22;52.75;;;30.65;;
67839;SDS011;54636;51.684;5.142;2022-08-19T09:02:53;41.95;;;28.38;;
67839;SDS011;54636;51.684;5.142;2022-08-19T09:05:20;43.90;;;27.42;;
67839;SDS011;54636;51.684;5.142;2022-08-19T09:10:38;47.40;;;26.42;;
67839;SDS011;54636;51.684;5.142;2022-08-19T09:16:02;41.38;;;24.77;;
67839;SDS011;54636;51.684;5.142;2022-08-19T09:18:39;34.50;;;25.25;;
67839;SDS011;54636;51.684;5.142;2022-08-19T09:23:45;32.45;;;20.50;;
67839;SDS011;54636;51.684;5.142;2022-08-19T09:26:15;38.78;;;20.48;;
67839;SDS011;54636;51.684;5.142;2022-08-19T09:28:44;30.05;;;20.90;;
67839;SDS011;54636;51.684;5.142;2022-08-19T09:31:11;35.95;;;20.33;;
67839;SDS011;54636;51.684;5.142;2022-08-19T09:33:42;34.20;;;20.02;;
67839;SDS011;54636;51.684;5.142;2022-08-19T09:36:11;25.15;;;18.42;;
67839;SDS011;54636;51.684;5.142;2022-08-19T09:38:39;26.42;;;18.00;;
67839;SDS011;54636;51.684;5.142;2022-08-19T09:43:38;34.45;;;17.60;;
67839;SDS011;54636;51.684;5.142;2022-08-19T09:46:05;24.02;;;16.05;;
67839;SDS011;54636;51.684;5.142;2022-08-19T09:48:34;22.30;;;16.55;;
67839;SDS011;54636;51.684;5.142;2022-08-19T09:51:07;23.40;;;15.23;;
67839;SDS011;54636;51.684;5.142;2022-08-19T09:53:35;21.00;;;13.48;;
67839;SDS011;54636;51.684;5.142;2022-08-19T09:56:01;24.55;;;15.52;;
67839;SDS011;54636;51.684;5.142;2022-08-19T09:58:29;24.85;;;14.20;;
67839;SDS011;54636;51.684;5.142;2022-08-19T10:00:56;24.77;;;15.48;;
67839;SDS011;54636;51.684;5.142;2022-08-19T10:03:23;24.65;;;14.30;;
67839;SDS011;54636;51.684;5.142;2022-08-19T10:05:49;25.98;;;14.57;;
67839;SDS011;54636;51.684;5.142;2022-08-19T10:08:19;23.13;;;16.58;;
67839;SDS011;54636;51.684;5.142;2022-08-19T10:10:48;22.55;;;16.15;;
67839;SDS011;54636;51.684;5.142;2022-08-19T10:13:15;24.75;;;17.92;;
67839;SDS011;54636;51.684;5.142;2022-08-19T10:15:46;28.00;;;16.85;;
67839;SDS011;54636;51.684;5.142;2022-08-19T10:18:15;26.87;;;16.53;;
67839;SDS011;54636;51.684;5.142;2022-08-19T10:20:45;26.17;;;17.55;;
67839;SDS011;54636;51.684;5.142;2022-08-19T10:23:11;22.98;;;16.38;;
67839;SDS011;54636;51.684;5.142;2022-08-19T10:25:37;20.33;;;16.38;;
67839;SDS011;54636;51.684;5.142;2022-08-19T10:28:02;25.05;;;16.75;;
67839;SDS011;54636;51.684;5.142;2022-08-19T10:30:29;26.92;;;15.52;;
67839;SDS011;54636;51.684;5.142;2022-08-19T10:32:54;17.48;;;14.23;;
67839;SDS011;54636;51.684;5.142;2022-08-19T10:35:20;28.27;;;15.50;;
67839;SDS011;54636;51.684;5.142;2022-08-19T10:37:45;21.20;;;14.73;;
67839;SDS011;54636;51.684;5.142;2022-08-19T10:40:11;15.68;;;11.90;;
67839;SDS011;54636;51.684;5.142;2022-08-19T10:42:37;14.45;;;10.90;;
67839;SDS011;54636;51.684;5.142;2022-08-19T10:45:03;15.32;;;10.70;;
67839;SDS011;54636;51.684;5.142;2022-08-19T10:47:30;12.73;;;9.88;;
67839;SDS011;54636;51.684;5.142;2022-08-19T10:49:57;13.98;;;9.80;;
67839;SDS011;54636;51.684;5.142;2022-08-19T10:52:46;9.73;;;8.73;;
67839;SDS011;54636;51.684;5.142;2022-08-19T10:55:13;12.10;;;8.88;;
67839;SDS011;54636;51.684;5.142;2022-08-19T10:57:57;12.10;;;8.73;;
67839;SDS011;54636;51.684;5.142;2022-08-19T11:00:23;11.80;;;8.93;;
67839;SDS011;54636;51.684;5.142;2022-08-19T11:02:50;18.08;;;9.15;;
67839;SDS011;54636;51.684;5.142;2022-08-19T11:05:17;13.98;;;8.32;;
67839;SDS011;54636;51.684;5.142;2022-08-19T11:07:43;13.25;;;9.07;;
67839;SDS011;54636;51.684;5.142;2022-08-19T11:10:10;22.75;;;6.47;;
67839;SDS011;54636;51.684;5.142;2022-08-19T11:12:37;12.80;;;8.80;;
67839;SDS011;54636;51.684;5.142;2022-08-19T11:15:04;10.93;;;8.65;;
67839;SDS011;54636;51.684;5.142;2022-08-19T11:17:35;15.18;;;8.30;;
67839;SDS011;54636;51.684;5.142;2022-08-19T11:20:01;12.73;;;8.45;;
67839;SDS011;54636;51.684;5.142;2022-08-19T11:22:30;13.63;;;9.02;;
67839;SDS011;54636;51.684;5.142;2022-08-19T11:24:55;8.63;;;7.35;;
67839;SDS011;54636;51.684;5.142;2022-08-19T11:27:21;8.60;;;7.40;;
67839;SDS011;54636;51.684;5.142;2022-08-19T11:29:46;10.52;;;8.73;;
67839;SDS011;54636;51.684;5.142;2022-08-19T11:32:11;8.15;;;7.35;;
67839;SDS011;54636;51.684;5.142;2022-08-19T11:34:39;12.32;;;9.05;;
67839;SDS011;54636;51.684;5.142;2022-08-19T11:37:05;9.75;;;8.48;;
67839;SDS011;54636;51.684;5.142;2022-08-19T11:39:32;13.43;;;7.68;;
67839;SDS011;54636;51.684;5.142;2022-08-19T11:42:00;12.18;;;8.32;;
67839;SDS011;54636;51.684;5.142;2022-08-19T11:44:28;8.32;;;7.50;;
67839;SDS011;54636;51.684;5.142;2022-08-19T11:46:55;14.32;;;8.70;;
67839;SDS011;54636;51.684;5.142;2022-08-19T11:49:21;8.73;;;7.78;;
67839;SDS011;54636;51.684;5.142;2022-08-19T11:51:47;14.73;;;8.07;;
67839;SDS011;54636;51.684;5.142;2022-08-19T11:54:13;9.80;;;8.30;;
67839;SDS011;54636;51.684;5.142;2022-08-19T11:56:41;12.85;;;9.15;;
67839;SDS011;54636;51.684;5.142;2022-08-19T11:59:07;12.13;;;8.75;;
67839;SDS011;54636;51.684;5.142;2022-08-19T12:01:32;13.27;;;9.38;;
67839;SDS011;54636;51.684;5.142;2022-08-19T12:03:58;15.73;;;10.75;;
67839;SDS011;54636;51.684;5.142;2022-08-19T12:06:25;13.07;;;10.32;;
67839;SDS011;54636;51.684;5.142;2022-08-19T12:09:01;18.33;;;13.60;;
67839;SDS011;54636;51.684;5.142;2022-08-19T12:11:32;18.05;;;13.95;;
67839;SDS011;54636;51.684;5.142;2022-08-19T12:13:58;15.70;;;13.82;;
67839;SDS011;54636;51.684;5.142;2022-08-19T12:16:25;20.70;;;14.13;;
67839;SDS011;54636;51.684;5.142;2022-08-19T12:18:53;15.10;;;13.65;;
67839;SDS011;54636;51.684;5.142;2022-08-19T12:21:22;21.25;;;17.45;;
67839;SDS011;54636;51.684;5.142;2022-08-19T12:23:53;21.73;;;19.35;;
67839;SDS011;54636;51.684;5.142;2022-08-19T12:26:20;28.58;;;22.55;;
67839;SDS011;54636;51.684;5.142;2022-08-19T12:28:46;41.92;;;26.58;;
67839;SDS011;54636;51.684;5.142;2022-08-19T12:31:13;30.50;;;25.15;;
67839;SDS011;54636;51.684;5.142;2022-08-19T12:33:39;33.90;;;25.02;;
67839;SDS011;54636;51.684;5.142;2022-08-19T12:36:07;29.92;;;26.75;;
67839;SDS011;54636;51.684;5.142;2022-08-19T12:38:35;39.70;;;28.35;;
67839;SDS011;54636;51.684;5.142;2022-08-19T12:41:02;39.97;;;28.02;;
67839;SDS011;54636;51.684;5.142;2022-08-19T12:43:33;35.67;;;29.23;;
67839;SDS011;54636;51.684;5.142;2022-08-19T12:45:59;34.00;;;28.08;;
67839;SDS011;54636;51.684;5.142;2022-08-19T12:48:25;28.98;;;25.83;;
67839;SDS011;54636;51.684;5.142;2022-08-19T12:50:50;25.90;;;22.73;;
67839;SDS011;54636;51.684;5.142;2022-08-19T12:53:16;27.23;;;21.67;;
67839;SDS011;54636;51.684;5.142;2022-08-19T12:55:42;30.40;;;21.85;;
67839;SDS011;54636;51.684;5.142;2022-08-19T12:58:08;28.52;;;19.80;;
67839;SDS011;54636;51.684;5.142;2022-08-19T13:00:34;24.98;;;20.80;;
67839;SDS011;54636;51.684;5.142;2022-08-19T13:02:59;31.00;;;21.85;;
67839;SDS011;54636;51.684;5.142;2022-08-19T13:05:26;23.95;;;21.10;;
67839;SDS011;54636;51.684;5.142;2022-08-19T13:07:54;26.25;;;22.48;;
67839;SDS011;54636;51.684;5.142;2022-08-19T13:10:21;23.98;;;21.45;;
67839;SDS011;54636;51.684;5.142;2022-08-19T13:12:49;25.52;;;21.27;;
67839;SDS011;54636;51.684;5.142;2022-08-19T13:15:16;22.33;;;20.02;;
67839;SDS011;54636;51.684;5.142;2022-08-19T13:17:45;21.30;;;18.92;;
67839;SDS011;54636;51.684;5.142;2022-08-19T13:20:14;23.73;;;20.25;;
67839;SDS011;54636;51.684;5.142;2022-08-19T13:22:40;21.75;;;19.45;;
67839;SDS011;54636;51.684;5.142;2022-08-19T13:25:07;20.50;;;18.35;;
67839;SDS011;54636;51.684;5.142;2022-08-19T13:27:33;22.10;;;17.42;;
67839;SDS011;54636;51.684;5.142;2022-08-19T13:29:59;18.70;;;16.73;;
67839;SDS011;54636;51.684;5.142;2022-08-19T13:32:44;18.98;;;15.80;;
67839;SDS011;54636;51.684;5.142;2022-08-19T13:35:28;17.70;;;13.85;;
67839;SDS011;54636;51.684;5.142;2022-08-19T13:37:53;15.70;;;13.18;;
67839;SDS011;54636;51.684;5.142;2022-08-19T13:40:20;16.67;;;13.95;;
67839;SDS011;54636;51.684;5.142;2022-08-19T13:42:50;15.02;;;13.43;;
67839;SDS011;54636;51.684;5.142;2022-08-19T13:45:18;15.95;;;14.27;;
67839;SDS011;54636;51.684;5.142;2022-08-19T13:47:46;14.15;;;12.82;;
67839;SDS011;54636;51.684;5.142;2022-08-19T13:50:14;15.40;;;13.90;;
67839;SDS011;54636;51.684;5.142;2022-08-19T13:52:41;14.43;;;12.43;;
67839;SDS011;54636;51.684;5.142;2022-08-19T13:55:07;13.68;;;11.80;;
67839;SDS011;54636;51.684;5.142;2022-08-19T13:57:34;12.60;;;11.38;;
67839;SDS011;54636;51.684;5.142;2022-08-19T14:00:01;9.93;;;8.98;;
67839;SDS011;54636;51.684;5.142;2022-08-19T14:02:28;8.25;;;7.63;;
67839;SDS011;54636;51.684;5.142;2022-08-19T14:04:54;7.38;;;6.88;;
67839;SDS011;54636;51.684;5.142;2022-08-19T14:07:19;7.25;;;6.68;;
67839;SDS011;54636;51.684;5.142;2022-08-19T14:09:45;7.55;;;6.90;;
67839;SDS011;54636;51.684;5.142;2022-08-19T14:12:11;7.05;;;6.55;;
67839;SDS011;54636;51.684;5.142;2022-08-19T14:14:37;6.47;;;5.85;;
67839;SDS011;54636;51.684;5.142;2022-08-19T14:17:06;5.60;;;5.18;;
67839;SDS011;54636;51.684;5.142;2022-08-19T14:19:33;5.68;;;5.32;;
67839;SDS011;54636;51.684;5.142;2022-08-19T14:21:59;5.45;;;5.15;;
67839;SDS011;54636;51.684;5.142;2022-08-19T14:24:24;5.63;;;5.13;;
67839;SDS011;54636;51.684;5.142;2022-08-19T14:26:49;5.70;;;4.43;;
67839;SDS011;54636;51.684;5.142;2022-08-19T14:29:15;4.75;;;4.35;;
67839;SDS011;54636;51.684;5.142;2022-08-19T14:31:40;7.78;;;4.28;;
67839;SDS011;54636;51.684;5.142;2022-08-19T14:34:08;4.80;;;4.50;;
67839;SDS011;54636;51.684;5.142;2022-08-19T14:36:35;6.28;;;5.68;;
67839;SDS011;54636;51.684;5.142;2022-08-19T14:39:01;5.72;;;5.32;;
67839;SDS011;54636;51.684;5.142;2022-08-19T14:41:26;6.50;;;6.05;;
67839;SDS011;54636;51.684;5.142;2022-08-19T14:43:52;6.22;;;5.70;;
67839;SDS011;54636;51.684;5.142;2022-08-19T14:46:20;8.93;;;8.02;;
67839;SDS011;54636;51.684;5.142;2022-08-19T14:48:47;9.45;;;8.73;;
67839;SDS011;54636;51.684;5.142;2022-08-19T14:51:13;9.90;;;8.95;;
67839;SDS011;54636;51.684;5.142;2022-08-19T14:53:39;9.88;;;8.88;;
67839;SDS011;54636;51.684;5.142;2022-08-19T14:56:14;12.30;;;11.02;;